Terminal Aerodrome Forecast
Issued by NWS Cleveland, OH

Home | Current Version | Previous Version | Text Only | Print | Product List | Glossary On
Versions: 1 2 3 4 5 6 7 8 9 10 11 12 13 14 15 16 17 18 19
000
FTUS41 KCLE 052335
TAFERI
TAF
KERI 052335Z 0600/0624 03010KT P6SM SCT080
     FM060400 36005KT P6SM SCT080
     FM061500 01010KT P6SM FEW250
     FM061900 33012G20KT P6SM SCT250
     FM062300 32008KT P6SM SCT250=

USA.gov is the U.S. government's official web portal to all federal, state and local government web resources and services.